sensor_id;sensor_type;location;lat;lon;timestamp;P1;durP1;ratioP1;P2;durP2;ratioP2
13204;SDS011;6667;52.634;9.226;2023-06-10T05:44:55;7.87;;;5.90;;
13204;SDS011;6667;52.634;9.226;2023-06-10T05:47:22;8.93;;;6.00;;
13204;SDS011;6667;52.634;9.226;2023-06-10T05:49:50;9.03;;;5.40;;
13204;SDS011;6667;52.634;9.226;2023-06-10T05:52:18;5.40;;;4.63;;
13204;SDS011;6667;52.634;9.226;2023-06-10T05:54:45;9.30;;;5.83;;
13204;SDS011;6667;52.634;9.226;2023-06-10T05:57:12;7.07;;;5.67;;
13204;SDS011;6667;52.634;9.226;2023-06-10T05:59:39;7.93;;;6.07;;
13204;SDS011;6667;52.634;9.226;2023-06-10T06:02:07;11.73;;;6.27;;
13204;SDS011;6667;52.634;9.226;2023-06-10T06:04:35;7.27;;;5.70;;
13204;SDS011;6667;52.634;9.226;2023-06-10T06:07:02;10.13;;;6.53;;
13204;SDS011;6667;52.634;9.226;2023-06-10T06:09:29;8.87;;;5.50;;
13204;SDS011;6667;52.634;9.226;2023-06-10T06:12:07;8.10;;;5.43;;
13204;SDS011;6667;52.634;9.226;2023-06-10T06:14:43;6.83;;;5.70;;
13204;SDS011;6667;52.634;9.226;2023-06-10T06:17:17;8.47;;;5.73;;
13204;SDS011;6667;52.634;9.226;2023-06-10T06:19:47;9.30;;;5.37;;
13204;SDS011;6667;52.634;9.226;2023-06-10T06:22:14;10.30;;;6.07;;
13204;SDS011;6667;52.634;9.226;2023-06-10T06:24:51;8.20;;;5.90;;
13204;SDS011;6667;52.634;9.226;2023-06-10T06:27:38;9.07;;;5.53;;
13204;SDS011;6667;52.634;9.226;2023-06-10T06:30:15;11.03;;;6.00;;
13204;SDS011;6667;52.634;9.226;2023-06-10T06:32:47;9.07;;;6.30;;
13204;SDS011;6667;52.634;9.226;2023-06-10T06:35:16;8.77;;;5.88;;
13204;SDS011;6667;52.634;9.226;2023-06-10T06:37:44;9.93;;;6.13;;
13204;SDS011;6667;52.634;9.226;2023-06-10T06:40:30;8.30;;;5.70;;
13204;SDS011;6667;52.634;9.226;2023-06-10T06:43:13;7.73;;;6.03;;
13204;SDS011;6667;52.634;9.226;2023-06-10T06:45:42;8.53;;;5.70;;
13204;SDS011;6667;52.634;9.226;2023-06-10T06:48:17;11.03;;;5.93;;
13204;SDS011;6667;52.634;9.226;2023-06-10T06:51:07;10.77;;;6.83;;
13204;SDS011;6667;52.634;9.226;2023-06-10T06:53:37;5.60;;;5.00;;
13204;SDS011;6667;52.634;9.226;2023-06-10T06:56:15;9.13;;;5.47;;
13204;SDS011;6667;52.634;9.226;2023-06-10T06:58:42;7.57;;;5.53;;
13204;SDS011;6667;52.634;9.226;2023-06-10T07:01:09;9.52;;;5.95;;
13204;SDS011;6667;52.634;9.226;2023-06-10T07:03:38;8.80;;;6.30;;
13204;SDS011;6667;52.634;9.226;2023-06-10T07:06:06;7.65;;;6.13;;
13204;SDS011;6667;52.634;9.226;2023-06-10T07:08:34;10.90;;;5.93;;
13204;SDS011;6667;52.634;9.226;2023-06-10T07:11:02;9.73;;;5.75;;
13204;SDS011;6667;52.634;9.226;2023-06-10T07:13:29;9.25;;;6.20;;
13204;SDS011;6667;52.634;9.226;2023-06-10T07:15:59;8.57;;;6.15;;
13204;SDS011;6667;52.634;9.226;2023-06-10T07:18:27;9.43;;;5.45;;
13204;SDS011;6667;52.634;9.226;2023-06-10T07:20:59;7.40;;;5.55;;
13204;SDS011;6667;52.634;9.226;2023-06-10T07:23:27;7.95;;;5.55;;
13204;SDS011;6667;52.634;9.226;2023-06-10T07:25:55;7.95;;;5.07;;
13204;SDS011;6667;52.634;9.226;2023-06-10T07:28:22;8.23;;;5.57;;
13204;SDS011;6667;52.634;9.226;2023-06-10T07:30:52;7.10;;;5.63;;
13204;SDS011;6667;52.634;9.226;2023-06-10T07:33:19;6.82;;;5.43;;
13204;SDS011;6667;52.634;9.226;2023-06-10T07:35:47;6.10;;;5.10;;
13204;SDS011;6667;52.634;9.226;2023-06-10T07:38:17;7.47;;;5.30;;
13204;SDS011;6667;52.634;9.226;2023-06-10T07:40:44;7.78;;;5.13;;
13204;SDS011;6667;52.634;9.226;2023-06-10T07:43:13;9.13;;;5.65;;
13204;SDS011;6667;52.634;9.226;2023-06-10T07:45:41;9.13;;;5.32;;
13204;SDS011;6667;52.634;9.226;2023-06-10T07:48:09;6.63;;;5.32;;
13204;SDS011;6667;52.634;9.226;2023-06-10T07:50:37;6.63;;;5.15;;
13204;SDS011;6667;52.634;9.226;2023-06-10T07:53:07;8.40;;;5.25;;
13204;SDS011;6667;52.634;9.226;2023-06-10T07:55:36;8.15;;;5.13;;
13204;SDS011;6667;52.634;9.226;2023-06-10T07:58:05;8.40;;;5.75;;
13204;SDS011;6667;52.634;9.226;2023-06-10T08:00:33;7.28;;;4.80;;
13204;SDS011;6667;52.634;9.226;2023-06-10T08:03:02;6.63;;;4.70;;
13204;SDS011;6667;52.634;9.226;2023-06-10T08:05:29;5.82;;;4.85;;
13204;SDS011;6667;52.634;9.226;2023-06-10T08:07:56;6.45;;;4.55;;
13204;SDS011;6667;52.634;9.226;2023-06-10T08:10:23;7.57;;;4.85;;
13204;SDS011;6667;52.634;9.226;2023-06-10T08:12:53;7.28;;;4.70;;
13204;SDS011;6667;52.634;9.226;2023-06-10T08:15:20;5.38;;;4.45;;
13204;SDS011;6667;52.634;9.226;2023-06-10T08:17:47;6.93;;;4.35;;
13204;SDS011;6667;52.634;9.226;2023-06-10T08:20:15;8.13;;;4.63;;
13204;SDS011;6667;52.634;9.226;2023-06-10T08:22:43;5.60;;;4.45;;
13204;SDS011;6667;52.634;9.226;2023-06-10T08:25:12;5.20;;;4.47;;
13204;SDS011;6667;52.634;9.226;2023-06-10T08:27:40;6.47;;;4.88;;
13204;SDS011;6667;52.634;9.226;2023-06-10T08:30:13;5.68;;;4.63;;
13204;SDS011;6667;52.634;9.226;2023-06-10T08:32:40;5.70;;;4.35;;
13204;SDS011;6667;52.634;9.226;2023-06-10T08:35:08;8.38;;;4.38;;
13204;SDS011;6667;52.634;9.226;2023-06-10T08:37:35;5.13;;;4.15;;
13204;SDS011;6667;52.634;9.226;2023-06-10T08:40:02;6.35;;;5.05;;
13204;SDS011;6667;52.634;9.226;2023-06-10T08:42:32;6.15;;;4.78;;
13204;SDS011;6667;52.634;9.226;2023-06-10T08:45:03;8.32;;;4.60;;
13204;SDS011;6667;52.634;9.226;2023-06-10T08:47:36;6.75;;;4.22;;
13204;SDS011;6667;52.634;9.226;2023-06-10T08:50:09;5.60;;;4.20;;
13204;SDS011;6667;52.634;9.226;2023-06-10T08:52:37;5.18;;;4.57;;
13204;SDS011;6667;52.634;9.226;2023-06-10T08:55:09;7.47;;;4.57;;
13204;SDS011;6667;52.634;9.226;2023-06-10T08:57:38;5.75;;;4.03;;
13204;SDS011;6667;52.634;9.226;2023-06-10T09:00:07;6.65;;;4.60;;
13204;SDS011;6667;52.634;9.226;2023-06-10T09:05:40;6.28;;;3.72;;
13204;SDS011;6667;52.634;9.226;2023-06-10T09:08:08;6.68;;;3.90;;
13204;SDS011;6667;52.634;9.226;2023-06-10T09:10:36;5.65;;;4.20;;
13204;SDS011;6667;52.634;9.226;2023-06-10T09:13:02;6.03;;;3.90;;
13204;SDS011;6667;52.634;9.226;2023-06-10T09:15:30;4.60;;;3.92;;
13204;SDS011;6667;52.634;9.226;2023-06-10T09:17:57;6.35;;;3.92;;
13204;SDS011;6667;52.634;9.226;2023-06-10T09:20:28;6.18;;;3.67;;
13204;SDS011;6667;52.634;9.226;2023-06-10T09:22:55;7.70;;;4.30;;
13204;SDS011;6667;52.634;9.226;2023-06-10T09:25:34;4.55;;;4.07;;
13204;SDS011;6667;52.634;9.226;2023-06-10T09:28:03;4.55;;;4.07;;
13204;SDS011;6667;52.634;9.226;2023-06-10T09:30:31;5.70;;;3.65;;
13204;SDS011;6667;52.634;9.226;2023-06-10T09:33:00;8.55;;;4.55;;
13204;SDS011;6667;52.634;9.226;2023-06-10T09:35:30;6.80;;;3.67;;
13204;SDS011;6667;52.634;9.226;2023-06-10T09:38:00;6.22;;;4.20;;
13204;SDS011;6667;52.634;9.226;2023-06-10T09:40:28;6.30;;;3.90;;
13204;SDS011;6667;52.634;9.226;2023-06-10T09:42:56;4.68;;;3.70;;
13204;SDS011;6667;52.634;9.226;2023-06-10T09:45:28;7.40;;;4.53;;
13204;SDS011;6667;52.634;9.226;2023-06-10T09:47:57;5.65;;;3.75;;
13204;SDS011;6667;52.634;9.226;2023-06-10T09:50:25;7.32;;;3.83;;
13204;SDS011;6667;52.634;9.226;2023-06-10T09:53:28;3.90;;;3.50;;
13204;SDS011;6667;52.634;9.226;2023-06-10T09:55:59;4.40;;;3.58;;
13204;SDS011;6667;52.634;9.226;2023-06-10T09:58:33;5.65;;;4.03;;
13204;SDS011;6667;52.634;9.226;2023-06-10T10:01:04;5.95;;;3.97;;
13204;SDS011;6667;52.634;9.226;2023-06-10T10:03:32;5.72;;;3.70;;
13204;SDS011;6667;52.634;9.226;2023-06-10T10:06:00;8.88;;;4.22;;
13204;SDS011;6667;52.634;9.226;2023-06-10T10:08:29;4.97;;;3.75;;
13204;SDS011;6667;52.634;9.226;2023-06-10T10:10:57;5.47;;;3.78;;
13204;SDS011;6667;52.634;9.226;2023-06-10T10:13:26;5.78;;;3.67;;
13204;SDS011;6667;52.634;9.226;2023-06-10T10:15:56;6.03;;;3.55;;
13204;SDS011;6667;52.634;9.226;2023-06-10T10:18:27;5.13;;;3.58;;
13204;SDS011;6667;52.634;9.226;2023-06-10T10:21:00;4.97;;;3.53;;
13204;SDS011;6667;52.634;9.226;2023-06-10T10:23:34;4.32;;;3.30;;
13204;SDS011;6667;52.634;9.226;2023-06-10T10:26:07;5.93;;;3.33;;
13204;SDS011;6667;52.634;9.226;2023-06-10T10:28:37;3.35;;;3.05;;
13204;SDS011;6667;52.634;9.226;2023-06-10T10:31:11;4.05;;;3.30;;
13204;SDS011;6667;52.634;9.226;2023-06-10T10:33:45;7.05;;;3.75;;
13204;SDS011;6667;52.634;9.226;2023-06-10T10:36:21;4.57;;;3.40;;
13204;SDS011;6667;52.634;9.226;2023-06-10T10:38:49;3.55;;;3.15;;
13204;SDS011;6667;52.634;9.226;2023-06-10T10:41:18;3.60;;;3.03;;
13204;SDS011;6667;52.634;9.226;2023-06-10T10:43:46;5.38;;;3.20;;
13204;SDS011;6667;52.634;9.226;2023-06-10T10:46:16;5.28;;;3.40;;
13204;SDS011;6667;52.634;9.226;2023-06-10T10:48:44;5.63;;;3.30;;
13204;SDS011;6667;52.634;9.226;2023-06-10T10:51:12;4.45;;;3.28;;
13204;SDS011;6667;52.634;9.226;2023-06-10T10:53:43;6.72;;;3.28;;
13204;SDS011;6667;52.634;9.226;2023-06-10T10:56:14;5.63;;;3.70;;
13204;SDS011;6667;52.634;9.226;2023-06-10T10:58:49;5.20;;;3.75;;
13204;SDS011;6667;52.634;9.226;2023-06-10T11:01:39;5.78;;;3.53;;
13204;SDS011;6667;52.634;9.226;2023-06-10T11:04:07;7.30;;;3.67;;
13204;SDS011;6667;52.634;9.226;2023-06-10T11:06:34;4.55;;;3.03;;
13204;SDS011;6667;52.634;9.226;2023-06-10T11:09:01;3.80;;;3.35;;
13204;SDS011;6667;52.634;9.226;2023-06-10T11:11:53;4.25;;;3.85;;
13204;SDS011;6667;52.634;9.226;2023-06-10T11:14:27;6.30;;;3.53;;
13204;SDS011;6667;52.634;9.226;2023-06-10T11:16:57;5.43;;;3.05;;
13204;SDS011;6667;52.634;9.226;2023-06-10T11:19:37;4.88;;;3.30;;
13204;SDS011;6667;52.634;9.226;2023-06-10T11:24:57;6.53;;;3.63;;
13204;SDS011;6667;52.634;9.226;2023-06-10T11:27:25;7.00;;;3.25;;
13204;SDS011;6667;52.634;9.226;2023-06-10T11:30:18;3.95;;;3.15;;
13204;SDS011;6667;52.634;9.226;2023-06-10T11:32:50;5.82;;;2.90;;
13204;SDS011;6667;52.634;9.226;2023-06-10T11:35:20;4.85;;;2.63;;
13204;SDS011;6667;52.634;9.226;2023-06-10T11:38:10;3.17;;;2.58;;
13204;SDS011;6667;52.634;9.226;2023-06-10T11:40:45;3.72;;;2.50;;
13204;SDS011;6667;52.634;9.226;2023-06-10T11:43:16;4.32;;;2.55;;
13204;SDS011;6667;52.634;9.226;2023-06-10T11:45:44;4.63;;;2.50;;
13204;SDS011;6667;52.634;9.226;2023-06-10T11:48:22;4.22;;;2.63;;
13204;SDS011;6667;52.634;9.226;2023-06-10T11:50:50;2.85;;;2.47;;
13204;SDS011;6667;52.634;9.226;2023-06-10T11:53:20;5.18;;;2.60;;
13204;SDS011;6667;52.634;9.226;2023-06-10T11:59:21;4.50;;;2.70;;
13204;SDS011;6667;52.634;9.226;2023-06-10T12:02:18;2.72;;;2.50;;
13204;SDS011;6667;52.634;9.226;2023-06-10T12:04:49;3.97;;;3.05;;
13204;SDS011;6667;52.634;9.226;2023-06-10T12:07:38;4.72;;;2.47;;
13204;SDS011;6667;52.634;9.226;2023-06-10T12:10:28;4.72;;;3.22;;
13204;SDS011;6667;52.634;9.226;2023-06-10T12:13:15;5.05;;;3.08;;
13204;SDS011;6667;52.634;9.226;2023-06-10T12:16:05;5.88;;;3.22;;
13204;SDS011;6667;52.634;9.226;2023-06-10T12:18:37;5.45;;;2.80;;
13204;SDS011;6667;52.634;9.226;2023-06-10T12:21:16;4.75;;;3.30;;
13204;SDS011;6667;52.634;9.226;2023-06-10T12:24:13;4.80;;;3.47;;
13204;SDS011;6667;52.634;9.226;2023-06-10T12:26:54;4.35;;;3.00;;
13204;SDS011;6667;52.634;9.226;2023-06-10T12:29:32;5.93;;;3.17;;
13204;SDS011;6667;52.634;9.226;2023-06-10T12:32:02;4.30;;;3.38;;
13204;SDS011;6667;52.634;9.226;2023-06-10T12:34:37;3.83;;;3.45;;
13204;SDS011;6667;52.634;9.226;2023-06-10T12:37:07;6.25;;;3.42;;
13204;SDS011;6667;52.634;9.226;2023-06-10T12:39:39;3.47;;;2.95;;
13204;SDS011;6667;52.634;9.226;2023-06-10T12:42:09;4.07;;;3.42;;
13204;SDS011;6667;52.634;9.226;2023-06-10T12:44:52;4.50;;;3.47;;
13204;SDS011;6667;52.634;9.226;2023-06-10T12:47:28;4.93;;;3.38;;
13204;SDS011;6667;52.634;9.226;2023-06-10T12:50:00;4.97;;;3.35;;
13204;SDS011;6667;52.634;9.226;2023-06-10T12:52:32;5.43;;;3.50;;
13204;SDS011;6667;52.634;9.226;2023-06-10T12:55:01;5.10;;;3.60;;
13204;SDS011;6667;52.634;9.226;2023-06-10T12:57:30;3.65;;;3.35;;
13204;SDS011;6667;52.634;9.226;2023-06-10T13:00:01;6.13;;;3.58;;
13204;SDS011;6667;52.634;9.226;2023-06-10T13:02:40;4.45;;;3.38;;
13204;SDS011;6667;52.634;9.226;2023-06-10T13:05:25;4.22;;;3.67;;
13204;SDS011;6667;52.634;9.226;2023-06-10T13:07:58;4.25;;;3.63;;
13204;SDS011;6667;52.634;9.226;2023-06-10T13:10:37;4.38;;;3.60;;
13204;SDS011;6667;52.634;9.226;2023-06-10T13:13:09;4.72;;;3.55;;
13204;SDS011;6667;52.634;9.226;2023-06-10T13:15:36;5.05;;;3.55;;
13204;SDS011;6667;52.634;9.226;2023-06-10T13:18:10;4.70;;;3.25;;
13204;SDS011;6667;52.634;9.226;2023-06-10T13:20:37;3.50;;;3.13;;
13204;SDS011;6667;52.634;9.226;2023-06-10T13:23:03;4.63;;;4.15;;
13204;SDS011;6667;52.634;9.226;2023-06-10T13:25:30;4.47;;;3.78;;
13204;SDS011;6667;52.634;9.226;2023-06-10T13:27:57;5.38;;;3.80;;
13204;SDS011;6667;52.634;9.226;2023-06-10T13:30:24;3.60;;;3.30;;
13204;SDS011;6667;52.634;9.226;2023-06-10T13:32:51;4.82;;;4.07;;
13204;SDS011;6667;52.634;9.226;2023-06-10T13:35:19;6.57;;;3.72;;
13204;SDS011;6667;52.634;9.226;2023-06-10T13:37:46;6.95;;;4.03;;
13204;SDS011;6667;52.634;9.226;2023-06-10T13:40:13;4.50;;;4.07;;
13204;SDS011;6667;52.634;9.226;2023-06-10T13:42:40;6.13;;;4.10;;
13204;SDS011;6667;52.634;9.226;2023-06-10T13:45:08;5.40;;;4.25;;
13204;SDS011;6667;52.634;9.226;2023-06-10T13:47:35;5.22;;;4.10;;
13204;SDS011;6667;52.634;9.226;2023-06-10T13:50:06;5.25;;;3.85;;
13204;SDS011;6667;52.634;9.226;2023-06-10T13:52:44;4.30;;;3.90;;
13204;SDS011;6667;52.634;9.226;2023-06-10T13:55:11;12.10;;;4.38;;
13204;SDS011;6667;52.634;9.226;2023-06-10T13:57:41;6.57;;;4.03;;
13204;SDS011;6667;52.634;9.226;2023-06-10T14:00:09;4.75;;;4.10;;
13204;SDS011;6667;52.634;9.226;2023-06-10T14:02:36;7.35;;;4.03;;
13204;SDS011;6667;52.634;9.226;2023-06-10T14:05:19;5.43;;;4.35;;
13204;SDS011;6667;52.634;9.226;2023-06-10T14:07:50;5.82;;;4.35;;
13204;SDS011;6667;52.634;9.226;2023-06-10T14:10:17;4.30;;;3.90;;
13204;SDS011;6667;52.634;9.226;2023-06-10T14:12:44;7.20;;;4.10;;
13204;SDS011;6667;52.634;9.226;2023-06-10T14:15:15;7.13;;;4.30;;
13204;SDS011;6667;52.634;9.226;2023-06-10T14:17:42;6.50;;;4.22;;
13204;SDS011;6667;52.634;9.226;2023-06-10T14:20:09;5.45;;;4.75;;
13204;SDS011;6667;52.634;9.226;2023-06-10T14:22:40;5.45;;;4.22;;
13204;SDS011;6667;52.634;9.226;2023-06-10T14:25:09;6.10;;;3.97;;
13204;SDS011;6667;52.634;9.226;2023-06-10T14:27:37;6.70;;;4.60;;
13204;SDS011;6667;52.634;9.226;2023-06-10T14:30:04;7.95;;;4.35;;
13204;SDS011;6667;52.634;9.226;2023-06-10T14:32:32;6.07;;;4.50;;
13204;SDS011;6667;52.634;9.226;2023-06-10T14:34:59;5.72;;;4.30;;
13204;SDS011;6667;52.634;9.226;2023-06-10T14:37:26;7.53;;;4.07;;
13204;SDS011;6667;52.634;9.226;2023-06-10T14:39:53;4.78;;;4.38;;
13204;SDS011;6667;52.634;9.226;2023-06-10T14:42:21;7.30;;;4.65;;
13204;SDS011;6667;52.634;9.226;2023-06-10T14:44:48;5.30;;;4.50;;
13204;SDS011;6667;52.634;9.226;2023-06-10T14:47:15;9.25;;;4.57;;
13204;SDS011;6667;52.634;9.226;2023-06-10T14:49:42;11.00;;;4.80;;
13204;SDS011;6667;52.634;9.226;2023-06-10T14:52:10;6.88;;;4.63;;
13204;SDS011;6667;52.634;9.226;2023-06-10T14:54:42;7.22;;;4.13;;
13204;SDS011;6667;52.634;9.226;2023-06-10T14:57:09;5.72;;;4.05;;
13204;SDS011;6667;52.634;9.226;2023-06-10T14:59:37;6.60;;;4.05;;
13204;SDS011;6667;52.634;9.226;2023-06-10T15:02:05;4.85;;;4.15;;
13204;SDS011;6667;52.634;9.226;2023-06-10T15:04:34;7.45;;;4.53;;
13204;SDS011;6667;52.634;9.226;2023-06-10T15:07:02;5.75;;;4.80;;
13204;SDS011;6667;52.634;9.226;2023-06-10T15:09:31;5.40;;;4.13;;
13204;SDS011;6667;52.634;9.226;2023-06-10T15:11:59;5.78;;;4.18;;
13204;SDS011;6667;52.634;9.226;2023-06-10T15:14:28;4.65;;;4.05;;
13204;SDS011;6667;52.634;9.226;2023-06-10T15:16:57;5.07;;;4.20;;
13204;SDS011;6667;52.634;9.226;2023-06-10T15:19:29;4.68;;;4.28;;
13204;SDS011;6667;52.634;9.226;2023-06-10T15:21:58;5.45;;;4.43;;
13204;SDS011;6667;52.634;9.226;2023-06-10T15:24:29;7.10;;;4.38;;
13204;SDS011;6667;52.634;9.226;2023-06-10T15:26:58;9.10;;;4.30;;
13204;SDS011;6667;52.634;9.226;2023-06-10T15:29:27;5.53;;;4.53;;
13204;SDS011;6667;52.634;9.226;2023-06-10T15:32:00;8.95;;;5.05;;
13204;SDS011;6667;52.634;9.226;2023-06-10T15:34:32;5.22;;;4.72;;
13204;SDS011;6667;52.634;9.226;2023-06-10T15:37:04;5.80;;;4.80;;
13204;SDS011;6667;52.634;9.226;2023-06-10T15:39:32;6.72;;;4.57;;
13204;SDS011;6667;52.634;9.226;2023-06-10T15:42:00;6.65;;;4.47;;
13204;SDS011;6667;52.634;9.226;2023-06-10T15:44:29;6.28;;;4.90;;
13204;SDS011;6667;52.634;9.226;2023-06-10T15:47:00;6.43;;;5.20;;
13204;SDS011;6667;52.634;9.226;2023-06-10T15:49:29;8.93;;;4.93;;
13204;SDS011;6667;52.634;9.226;2023-06-10T15:51:58;5.25;;;4.70;;
13204;SDS011;6667;52.634;9.226;2023-06-10T15:54:26;5.68;;;4.97;;
13204;SDS011;6667;52.634;9.226;2023-06-10T15:56:54;7.93;;;4.60;;
13204;SDS011;6667;52.634;9.226;2023-06-10T15:59:23;9.50;;;4.75;;
13204;SDS011;6667;52.634;9.226;2023-06-10T16:01:53;4.85;;;4.45;;
13204;SDS011;6667;52.634;9.226;2023-06-10T16:04:27;5.78;;;4.70;;
13204;SDS011;6667;52.634;9.226;2023-06-10T16:06:56;5.20;;;4.60;;
13204;SDS011;6667;52.634;9.226;2023-06-10T16:09:25;4.65;;;4.05;;
13204;SDS011;6667;52.634;9.226;2023-06-10T16:11:56;8.00;;;4.60;;
13204;SDS011;6667;52.634;9.226;2023-06-10T16:14:25;5.53;;;4.55;;
13204;SDS011;6667;52.634;9.226;2023-06-10T16:16:55;5.28;;;4.30;;
13204;SDS011;6667;52.634;9.226;2023-06-10T16:19:31;7.10;;;4.30;;
13204;SDS011;6667;52.634;9.226;2023-06-10T16:21:58;5.60;;;4.47;;
13204;SDS011;6667;52.634;9.226;2023-06-10T16:24:26;7.60;;;4.70;;
13204;SDS011;6667;52.634;9.226;2023-06-10T16:26:54;6.97;;;4.50;;
13204;SDS011;6667;52.634;9.226;2023-06-10T16:29:26;5.82;;;4.72;;
13204;SDS011;6667;52.634;9.226;2023-06-10T16:31:55;7.28;;;5.38;;
13204;SDS011;6667;52.634;9.226;2023-06-10T16:34:22;9.50;;;4.97;;
13204;SDS011;6667;52.634;9.226;2023-06-10T16:36:50;9.35;;;5.13;;
13204;SDS011;6667;52.634;9.226;2023-06-10T16:39:17;5.43;;;4.63;;
13204;SDS011;6667;52.634;9.226;2023-06-10T16:41:44;6.68;;;4.90;;
13204;SDS011;6667;52.634;9.226;2023-06-10T16:44:12;6.57;;;5.20;;
13204;SDS011;6667;52.634;9.226;2023-06-10T16:46:41;9.00;;;4.72;;
13204;SDS011;6667;52.634;9.226;2023-06-10T16:49:09;7.05;;;5.18;;
13204;SDS011;6667;52.634;9.226;2023-06-10T16:51:36;5.70;;;4.85;;
13204;SDS011;6667;52.634;9.226;2023-06-10T16:54:05;6.70;;;5.07;;
13204;SDS011;6667;52.634;9.226;2023-06-10T16:56:34;6.10;;;4.80;;
13204;SDS011;6667;52.634;9.226;2023-06-10T16:59:01;8.48;;;5.22;;
13204;SDS011;6667;52.634;9.226;2023-06-10T17:01:29;5.85;;;4.70;;
13204;SDS011;6667;52.634;9.226;2023-06-10T17:04:13;7.18;;;5.20;;
13204;SDS011;6667;52.634;9.226;2023-06-10T17:06:43;5.25;;;4.75;;
13204;SDS011;6667;52.634;9.226;2023-06-10T17:09:12;6.13;;;5.57;;
13204;SDS011;6667;52.634;9.226;2023-06-10T17:11:38;6.50;;;4.95;;
13204;SDS011;6667;52.634;9.226;2023-06-10T17:14:05;6.95;;;5.18;;
13204;SDS011;6667;52.634;9.226;2023-06-10T17:16:32;5.70;;;5.07;;
13204;SDS011;6667;52.634;9.226;2023-06-10T17:18:59;7.40;;;5.15;;
13204;SDS011;6667;52.634;9.226;2023-06-10T17:21:26;5.80;;;5.15;;
13204;SDS011;6667;52.634;9.226;2023-06-10T17:23:54;8.73;;;5.35;;
13204;SDS011;6667;52.634;9.226;2023-06-10T17:26:22;7.38;;;5.63;;
13204;SDS011;6667;52.634;9.226;2023-06-10T17:28:49;6.43;;;5.45;;
13204;SDS011;6667;52.634;9.226;2023-06-10T17:31:17;9.23;;;5.28;;
13204;SDS011;6667;52.634;9.226;2023-06-10T17:33:43;7.10;;;5.45;;
13204;SDS011;6667;52.634;9.226;2023-06-10T17:36:10;7.00;;;5.35;;
13204;SDS011;6667;52.634;9.226;2023-06-10T17:38:41;5.60;;;4.82;;
13204;SDS011;6667;52.634;9.226;2023-06-10T17:41:08;5.93;;;5.32;;
13204;SDS011;6667;52.634;9.226;2023-06-10T17:43:36;5.85;;;4.47;;
13204;SDS011;6667;52.634;9.226;2023-06-10T17:46:03;7.05;;;5.28;;
13204;SDS011;6667;52.634;9.226;2023-06-10T17:48:30;6.97;;;4.90;;
13204;SDS011;6667;52.634;9.226;2023-06-10T17:50:59;6.40;;;5.43;;
13204;SDS011;6667;52.634;9.226;2023-06-10T17:53:26;5.97;;;5.38;;
13204;SDS011;6667;52.634;9.226;2023-06-10T17:55:53;7.00;;;5.03;;
13204;SDS011;6667;52.634;9.226;2023-06-10T17:58:20;6.00;;;4.90;;
13204;SDS011;6667;52.634;9.226;2023-06-10T18:00:49;6.22;;;5.38;;
13204;SDS011;6667;52.634;9.226;2023-06-10T18:03:17;6.25;;;5.65;;
13204;SDS011;6667;52.634;9.226;2023-06-10T18:05:52;6.35;;;5.75;;
13204;SDS011;6667;52.634;9.226;2023-06-10T18:08:22;9.35;;;5.78;;
13204;SDS011;6667;52.634;9.226;2023-06-10T18:10:50;7.22;;;5.55;;
13204;SDS011;6667;52.634;9.226;2023-06-10T18:13:22;12.05;;;5.93;;
13204;SDS011;6667;52.634;9.226;2023-06-10T18:15:51;5.68;;;4.80;;
13204;SDS011;6667;52.634;9.226;2023-06-10T18:18:20;8.73;;;5.53;;
13204;SDS011;6667;52.634;9.226;2023-06-10T18:20:48;6.30;;;4.65;;
13204;SDS011;6667;52.634;9.226;2023-06-10T18:23:15;4.95;;;4.25;;
13204;SDS011;6667;52.634;9.226;2023-06-10T18:25:45;6.72;;;4.35;;
13204;SDS011;6667;52.634;9.226;2023-06-10T18:28:12;5.68;;;4.50;;
13204;SDS011;6667;52.634;9.226;2023-06-10T18:30:39;6.90;;;4.15;;
13204;SDS011;6667;52.634;9.226;2023-06-10T18:33:08;8.07;;;4.25;;
13204;SDS011;6667;52.634;9.226;2023-06-10T18:35:34;6.82;;;4.20;;
13204;SDS011;6667;52.634;9.226;2023-06-10T18:38:03;9.48;;;4.00;;
13204;SDS011;6667;52.634;9.226;2023-06-10T18:40:30;5.63;;;3.92;;
13204;SDS011;6667;52.634;9.226;2023-06-10T18:42:57;4.57;;;4.00;;
13204;SDS011;6667;52.634;9.226;2023-06-10T18:45:24;5.60;;;4.20;;
13204;SDS011;6667;52.634;9.226;2023-06-10T18:47:52;5.55;;;4.07;;
13204;SDS011;6667;52.634;9.226;2023-06-10T18:50:22;4.80;;;3.95;;
13204;SDS011;6667;52.634;9.226;2023-06-10T18:52:48;4.28;;;3.88;;
13204;SDS011;6667;52.634;9.226;2023-06-10T18:55:15;6.63;;;4.03;;
13204;SDS011;6667;52.634;9.226;2023-06-10T18:57:42;4.45;;;4.00;;
13204;SDS011;6667;52.634;9.226;2023-06-10T19:00:09;5.70;;;4.20;;
13204;SDS011;6667;52.634;9.226;2023-06-10T19:02:37;4.93;;;3.90;;
13204;SDS011;6667;52.634;9.226;2023-06-10T19:05:04;5.93;;;3.90;;
13204;SDS011;6667;52.634;9.226;2023-06-10T19:07:35;5.50;;;3.88;;
13204;SDS011;6667;52.634;9.226;2023-06-10T19:10:02;4.95;;;4.05;;
13204;SDS011;6667;52.634;9.226;2023-06-10T19:12:30;4.35;;;3.50;;
13204;SDS011;6667;52.634;9.226;2023-06-10T19:14:57;4.38;;;3.97;;
13204;SDS011;6667;52.634;9.226;2023-06-10T19:17:24;5.72;;;3.97;;
13204;SDS011;6667;52.634;9.226;2023-06-10T19:19:51;5.15;;;3.78;;
13204;SDS011;6667;52.634;9.226;2023-06-10T19:22:18;7.30;;;4.53;;
13204;SDS011;6667;52.634;9.226;2023-06-10T19:24:57;4.25;;;3.70;;
13204;SDS011;6667;52.634;9.226;2023-06-10T19:27:25;5.28;;;4.20;;
13204;SDS011;6667;52.634;9.226;2023-06-10T19:29:51;4.43;;;3.92;;
13204;SDS011;6667;52.634;9.226;2023-06-10T19:32:18;8.13;;;3.67;;
13204;SDS011;6667;52.634;9.226;2023-06-10T19:34:45;5.40;;;4.10;;
13204;SDS011;6667;52.634;9.226;2023-06-10T19:37:11;6.20;;;3.97;;
13204;SDS011;6667;52.634;9.226;2023-06-10T19:39:38;6.68;;;3.88;;
13204;SDS011;6667;52.634;9.226;2023-06-10T19:42:06;4.25;;;3.95;;
13204;SDS011;6667;52.634;9.226;2023-06-10T19:44:33;4.72;;;4.15;;
13204;SDS011;6667;52.634;9.226;2023-06-10T19:47:00;6.00;;;4.63;;
13204;SDS011;6667;52.634;9.226;2023-06-10T19:49:26;6.50;;;4.38;;
13204;SDS011;6667;52.634;9.226;2023-06-10T19:51:53;5.00;;;4.50;;
13204;SDS011;6667;52.634;9.226;2023-06-10T19:54:20;4.10;;;3.80;;
13204;SDS011;6667;52.634;9.226;2023-06-10T19:56:47;5.13;;;4.45;;
13204;SDS011;6667;52.634;9.226;2023-06-10T19:59:15;4.30;;;3.92;;
13204;SDS011;6667;52.634;9.226;2023-06-10T20:01:41;5.20;;;4.70;;
13204;SDS011;6667;52.634;9.226;2023-06-10T20:04:08;5.22;;;4.60;;
13204;SDS011;6667;52.634;9.226;2023-06-10T20:06:34;5.60;;;3.97;;
13204;SDS011;6667;52.634;9.226;2023-06-10T20:09:01;4.82;;;4.32;;
13204;SDS011;6667;52.634;9.226;2023-06-10T20:11:28;5.28;;;4.40;;
13204;SDS011;6667;52.634;9.226;2023-06-10T20:13:54;4.50;;;4.05;;
13204;SDS011;6667;52.634;9.226;2023-06-10T20:16:22;6.28;;;4.60;;
13204;SDS011;6667;52.634;9.226;2023-06-10T20:18:50;5.43;;;4.32;;
13204;SDS011;6667;52.634;9.226;2023-06-10T20:21:17;5.75;;;4.18;;
13204;SDS011;6667;52.634;9.226;2023-06-10T20:23:44;5.55;;;4.32;;
13204;SDS011;6667;52.634;9.226;2023-06-10T20:26:11;4.63;;;4.13;;
13204;SDS011;6667;52.634;9.226;2023-06-10T20:28:38;5.68;;;4.63;;
13204;SDS011;6667;52.634;9.226;2023-06-10T20:31:04;5.55;;;5.03;;
13204;SDS011;6667;52.634;9.226;2023-06-10T20:33:33;5.55;;;4.50;;
13204;SDS011;6667;52.634;9.226;2023-06-10T20:36:00;5.22;;;4.72;;
13204;SDS011;6667;52.634;9.226;2023-06-10T20:38:26;5.53;;;4.78;;
13204;SDS011;6667;52.634;9.226;2023-06-10T20:40:53;9.55;;;5.10;;
13204;SDS011;6667;52.634;9.226;2023-06-10T20:43:23;5.63;;;4.70;;
13204;SDS011;6667;52.634;9.226;2023-06-10T20:45:50;5.28;;;4.30;;
13204;SDS011;6667;52.634;9.226;2023-06-10T20:48:17;5.30;;;4.20;;
13204;SDS011;6667;52.634;9.226;2023-06-10T20:50:46;6.75;;;5.13;;
13204;SDS011;6667;52.634;9.226;2023-06-10T20:53:12;4.50;;;4.10;;
13204;SDS011;6667;52.634;9.226;2023-06-10T20:55:39;7.47;;;5.80;;
13204;SDS011;6667;52.634;9.226;2023-06-10T20:58:06;5.43;;;4.53;;
13204;SDS011;6667;52.634;9.226;2023-06-10T21:00:33;5.85;;;5.18;;
13204;SDS011;6667;52.634;9.226;2023-06-10T21:03:00;9.60;;;5.53;;
13204;SDS011;6667;52.634;9.226;2023-06-10T21:05:27;5.78;;;5.28;;
13204;SDS011;6667;52.634;9.226;2023-06-10T21:07:55;7.13;;;5.10;;
13204;SDS011;6667;52.634;9.226;2023-06-10T21:10:21;6.40;;;5.13;;